Time;durP1;ratioP1;P1;durP2;ratioP2;P2;SDS_P1;SDS_P2;PMS_P1;PMS_P2;Temp;Humidity;BMP_temperature;BMP_pressure;BME280_temperature;BME280_humidity;BME280_pressure;Samples;Min_cycle;Max_cycle;Signal;HPM_P1;HPM_P2
2022/07/03 00:01:38;;;;;;;3.78;2.22;;;18.10;99.90;;;;;;5030178;28;20029;-69
2022/07/03 00:04:04;;;;;;;5.10;2.60;;;18.00;99.90;;;;;;5029136;28;20022;-69
2022/07/03 00:06:32;;;;;;;3.22;2.45;;;18.00;99.90;;;;;;5030302;28;20025;-69
2022/07/03 00:09:03;;;;;;;3.97;2.30;;;18.00;99.90;;;;;;5026574;28;20072;-69
2022/07/03 00:11:29;;;;;;;2.53;2.08;;;17.90;99.90;;;;;;5020251;28;20013;-69
2022/07/03 00:13:54;;;;;;;3.03;2.60;;;17.80;99.90;;;;;;5029603;28;20030;-69
2022/07/03 00:16:20;;;;;;;5.30;2.53;;;17.70;99.90;;;;;;5029771;28;20009;-69
2022/07/03 00:18:46;;;;;;;3.97;2.30;;;16.60;99.90;;;;;;5028964;28;20398;-69
2022/07/03 00:21:15;;;;;;;7.93;2.17;;;17.70;99.90;;;;;;5029717;28;20018;-69
2022/07/03 00:23:46;;;;;;;5.60;2.72;;;17.70;99.90;;;;;;5029779;28;20379;-69
2022/07/03 00:26:13;;;;;;;2.63;2.40;;;17.70;99.90;;;;;;5029369;28;20036;-69
2022/07/03 00:28:42;;;;;;;4.07;2.78;;;17.60;99.90;;;;;;5029703;28;20021;-69
2022/07/03 00:31:08;;;;;;;3.55;2.40;;;18.90;99.90;;;;;;5015289;28;20017;-69
2022/07/03 00:33:36;;;;;;;4.13;2.22;;;17.60;99.90;;;;;;5011298;28;20396;-69
2022/07/03 00:36:02;;;;;;;6.15;2.78;;;17.70;99.90;;;;;;5011388;28;20092;-70
2022/07/03 00:38:28;;;;;;;3.88;2.80;;;17.60;99.90;;;;;;5029604;28;20037;-69
2022/07/03 00:40:53;;;;;;;4.05;2.28;;;17.60;99.90;;;;;;5029365;28;20034;-69
2022/07/03 00:43:20;;;;;;;5.90;2.35;;;17.50;99.90;;;;;;5015514;28;20029;-69
2022/07/03 00:45:48;;;;;;;4.30;2.28;;;17.60;99.90;;;;;;5029161;28;20529;-69
2022/07/03 00:48:16;;;;;;;2.83;2.53;;;17.40;99.90;;;;;;5028144;28;20443;-69
2022/07/03 00:50:50;;;;;;;4.22;2.45;;;17.50;99.90;;;;;;5029171;28;20053;-69
2022/07/03 00:53:28;;;;;;;2.90;2.20;;;17.30;99.90;;;;;;5028961;28;20021;-69
2022/07/03 00:55:55;;;;;;;4.05;3.33;;;17.40;99.90;;;;;;5007999;28;20551;-69
2022/07/03 00:58:21;;;;;;;5.53;4.13;;;17.20;99.90;;;;;;5026464;28;20036;-69
2022/07/03 01:00:50;;;;;;;3.75;3.22;;;17.30;99.90;;;;;;5029033;28;20022;-69
2022/07/03 01:03:18;;;;;;;4.07;3.10;;;19.70;99.90;;;;;;5028271;28;20053;-69
2022/07/03 01:05:49;;;;;;;4.93;3.80;;;18.40;99.90;;;;;;5029027;28;20103;-69
2022/07/03 01:08:39;;;;;;;4.88;3.08;;;17.30;99.90;;;;;;5028855;28;20021;-69
2022/07/03 01:11:15;;;;;;;4.80;3.80;;;17.20;99.90;;;;;;5015605;28;20021;-69
2022/07/03 01:13:59;;;;;;;8.25;4.40;;;17.20;99.90;;;;;;5029056;28;20017;-69
2022/07/03 01:16:36;;;;;;;4.72;3.63;;;17.00;99.90;;;;;;5017457;28;20370;-69
2022/07/03 01:19:11;;;;;;;5.13;4.63;;;17.30;99.90;;;;;;5010435;28;20053;-69
2022/07/03 01:21:50;;;;;;;6.63;3.60;;;17.00;99.90;;;;;;5028940;28;20167;-69
2022/07/03 01:24:26;;;;;;;8.10;2.95;;;17.00;99.90;;;;;;5028713;28;20040;-69
2022/07/03 01:26:57;;;;;;;3.40;2.70;;;16.90;99.90;;;;;;5011093;28;20073;-69
2022/07/03 01:29:29;;;;;;;6.47;2.95;;;16.80;99.90;;;;;;5028508;28;20013;-69
2022/07/03 01:31:56;;;;;;;3.87;2.33;;;16.70;99.90;;;;;;5028383;28;20022;-69
2022/07/03 01:34:28;;;;;;;5.03;3.00;;;17.40;99.90;;;;;;5028548;28;20264;-69
2022/07/03 01:36:57;;;;;;;2.10;1.90;;;16.60;99.90;;;;;;5028829;28;20232;-69
2022/07/03 01:39:26;;;;;;;2.75;2.20;;;16.60;99.90;;;;;;5028292;28;20073;-69
2022/07/03 01:41:55;;;;;;;2.95;2.22;;;17.40;99.90;;;;;;5028606;28;20101;-69
2022/07/03 01:44:23;;;;;;;3.88;2.25;;;16.50;99.90;;;;;;5028387;28;20128;-69
2022/07/03 01:46:53;;;;;;;3.97;2.65;;;18.20;99.90;;;;;;5028148;28;20037;-69
2022/07/03 01:49:20;;;;;;;3.55;3.22;;;16.60;99.90;;;;;;5028557;28;20068;-69
2022/07/03 01:51:50;;;;;;;6.00;3.65;;;16.50;99.90;;;;;;5028442;28;20022;-69
2022/07/03 01:54:17;;;;;;;5.00;3.90;;;16.50;99.90;;;;;;5028484;28;20037;-69
2022/07/03 01:56:44;;;;;;;5.90;4.95;;;16.50;99.90;;;;;;5028416;28;20111;-68
2022/07/03 01:59:10;;;;;;;6.97;4.65;;;16.40;99.90;;;;;;5028300;28;20045;-68
2022/07/03 02:02:13;;;;;;;5.00;4.55;;;16.50;99.90;;;;;;5030343;28;20033;-69
2022/07/03 02:05:02;;;;;;;5.03;4.38;;;16.70;99.90;;;;;;5021612;28;20068;-69
2022/07/03 02:07:33;;;;;;;5.72;5.22;;;16.50;99.90;;;;;;5032410;28;20018;-69
2022/07/03 02:10:06;;;;;;;6.35;4.43;;;16.60;99.90;;;;;;5032061;28;20148;-69
2022/07/03 02:12:39;;;;;;;5.93;4.70;;;16.70;99.90;;;;;;5032312;28;20025;-69
2022/07/03 02:15:07;;;;;;;7.47;4.50;;;16.70;99.90;;;;;;5031568;28;20022;-69
2022/07/03 02:17:44;;;;;;;7.13;5.38;;;16.60;99.90;;;;;;5031958;28;20061;-68
2022/07/03 02:20:10;;;;;;;8.93;4.75;;;16.60;99.90;;;;;;5002888;28;20121;-69
2022/07/03 02:22:40;;;;;;;7.28;4.38;;;16.60;99.90;;;;;;5029505;28;20437;-69
2022/07/03 02:25:15;;;;;;;5.68;4.47;;;17.90;99.90;;;;;;5031725;28;20021;-69
2022/07/03 02:27:51;;;;;;;8.20;5.03;;;16.50;99.90;;;;;;5031725;28;20026;-70
2022/07/03 02:30:17;;;;;;;5.88;5.05;;;16.60;99.90;;;;;;5031457;28;20044;-69
2022/07/03 02:32:48;;;;;;;9.52;5.15;;;16.40;99.90;;;;;;5013890;28;20025;-69
2022/07/03 02:35:26;;;;;;;7.93;4.78;;;16.60;99.90;;;;;;5031669;28;20525;-69
2022/07/03 02:38:18;;;;;;;6.00;4.90;;;16.40;99.90;;;;;;5031552;28;20017;-69
2022/07/03 02:41:00;;;;;;;8.68;4.85;;;16.30;99.90;;;;;;5031595;28;20033;-69
2022/07/03 02:43:42;;;;;;;5.07;4.57;;;16.20;99.90;;;;;;5018511;28;20105;-69
2022/07/03 02:49:16;;;;;;;6.35;5.22;;;16.00;99.90;;;;;;5031413;28;20464;-69
2022/07/03 02:51:46;;;;;;;6.65;4.60;;;16.00;99.90;;;;;;5031279;28;20043;-69
2022/07/03 02:54:15;;;;;;;7.53;4.75;;;15.80;99.90;;;;;;5031279;28;20111;-69
2022/07/03 02:56:49;;;;;;;5.75;4.65;;;15.80;99.90;;;;;;5031241;28;20093;-69
2022/07/03 02:59:42;;;;;;;5.68;3.78;;;15.80;99.90;;;;;;5030762;28;20034;-69
2022/07/03 03:02:38;;;;;;;7.45;4.70;;;15.70;99.90;;;;;;5018360;28;20491;-69
2022/07/03 03:05:16;;;;;;;7.60;5.15;;;15.80;99.90;;;;;;5031046;28;20056;-68
2022/07/03 03:08:09;;;;;;;5.65;4.60;;;15.60;99.90;;;;;;5031215;28;20028;-69
2022/07/03 03:10:39;;;;;;;5.03;4.47;;;15.60;99.90;;;;;;5031012;28;20036;-69
2022/07/03 03:13:12;;;;;;;5.80;5.15;;;15.50;99.90;;;;;;5030159;28;20036;-69
2022/07/03 03:15:41;;;;;;;6.38;5.20;;;15.60;99.90;;;;;;5030869;28;20033;-69
2022/07/03 03:18:11;;;;;;;6.40;5.80;;;15.30;99.90;;;;;;5030645;28;20049;-69
2022/07/03 03:20:38;;;;;;;6.57;5.97;;;15.50;99.90;;;;;;5030939;28;20072;-69
2022/07/03 03:23:21;;;;;;;8.23;6.35;;;15.60;99.90;;;;;;5030826;28;20029;-69
2022/07/03 03:25:47;;;;;;;6.60;5.95;;;15.60;99.90;;;;;;5030867;28;20091;-69
2022/07/03 03:28:14;;;;;;;7.03;6.32;;;15.60;99.90;;;;;;5030150;28;20033;-69
2022/07/03 03:30:40;;;;;;;8.75;6.30;;;15.60;99.90;;;;;;5030810;28;20060;-69
2022/07/03 03:33:09;;;;;;;6.57;6.00;;;15.60;99.90;;;;;;5030528;28;20813;-69
2022/07/03 03:35:36;;;;;;;7.50;6.85;;;15.50;99.90;;;;;;5030603;28;20021;-69
2022/07/03 03:38:02;;;;;;;7.32;6.55;;;15.70;99.90;;;;;;5030151;28;20034;-69
2022/07/03 03:40:27;;;;;;;12.65;7.07;;;15.50;99.90;;;;;;5030737;28;20034;-69
2022/07/03 03:42:53;;;;;;;7.32;6.72;;;15.40;99.90;;;;;;5029753;28;20034;-69
2022/07/03 03:45:18;;;;;;;7.63;6.57;;;15.40;99.90;;;;;;5030398;28;20029;-69
2022/07/03 03:47:44;;;;;;;11.82;6.57;;;15.40;99.90;;;;;;5030492;28;20022;-69
2022/07/03 03:50:10;;;;;;;7.53;5.90;;;15.40;99.90;;;;;;5030270;28;20019;-69
2022/07/03 03:52:36;;;;;;;7.93;7.07;;;15.50;99.90;;;;;;5030381;28;20021;-69
2022/07/03 03:55:01;;;;;;;7.43;6.72;;;18.00;99.90;;;;;;5029916;28;20419;-69
2022/07/03 03:57:27;;;;;;;6.70;5.90;;;15.40;99.90;;;;;;5029847;28;20026;-69
2022/07/03 03:59:55;;;;;;;7.75;6.63;;;15.50;99.90;;;;;;5029826;28;20049;-69
2022/07/03 04:02:20;;;;;;;6.97;6.28;;;15.50;99.90;;;;;;5030111;28;20564;-68
2022/07/03 04:04:46;;;;;;;7.53;6.80;;;16.50;99.90;;;;;;5001688;28;20212;-69
2022/07/03 04:07:11;;;;;;;6.88;6.22;;;15.50;99.90;;;;;;5012671;28;20192;-69
2022/07/03 04:09:37;;;;;;;8.57;6.78;;;15.60;99.90;;;;;;5030112;28;20148;-69
2022/07/03 04:12:03;;;;;;;7.88;7.18;;;15.70;99.90;;;;;;5029097;28;20044;-69
2022/07/03 04:14:29;;;;;;;7.57;6.82;;;15.60;99.90;;;;;;5030041;28;20044;-69
2022/07/03 04:16:54;;;;;;;6.72;6.10;;;15.60;99.90;;;;;;5029826;28;20550;-69
2022/07/03 04:19:21;;;;;;;7.68;6.97;;;15.60;99.90;;;;;;5029393;28;20049;-69
2022/07/03 04:21:48;;;;;;;7.40;6.72;;;;;;;;;;5029687;28;20104;-69
2022/07/03 04:24:14;;;;;;;8.70;7.72;;;15.60;99.90;;;;;;5028819;28;20101;-69
2022/07/03 04:26:39;;;;;;;7.88;7.10;;;15.50;99.90;;;;;;5029036;28;20033;-69
2022/07/03 04:29:05;;;;;;;9.43;6.82;;;15.60;99.90;;;;;;5011334;28;20083;-69
2022/07/03 04:31:30;;;;;;;7.20;6.47;;;15.60;99.90;;;;;;5029860;28;20049;-69
2022/07/03 04:33:56;;;;;;;7.57;5.95;;;15.70;99.90;;;;;;5029513;28;20454;-69
2022/07/03 04:36:21;;;;;;;7.50;6.80;;;15.50;99.90;;;;;;5029287;28;20068;-69
2022/07/03 04:38:47;;;;;;;7.13;6.53;;;15.50;99.90;;;;;;5029410;28;20132;-69
2022/07/03 04:41:12;;;;;;;8.52;6.30;;;15.40;99.90;;;;;;5028619;28;20037;-69
2022/07/03 04:43:38;;;;;;;10.30;6.68;;;15.40;99.90;;;;;;5029445;28;20374;-68
2022/07/03 04:46:04;;;;;;;7.63;6.72;;;15.40;99.90;;;;;;5028951;28;20171;-69
2022/07/03 04:48:29;;;;;;;8.02;7.25;;;15.40;99.90;;;;;;5029561;28;20064;-69
2022/07/03 04:50:56;;;;;;;8.45;6.53;;;15.40;99.90;;;;;;5029290;28;20029;-68
2022/07/03 04:53:21;;;;;;;9.80;6.97;;;15.40;99.90;;;;;;5029278;28;20029;-69
2022/07/03 04:55:47;;;;;;;7.35;6.50;;;15.50;99.90;;;;;;5028622;28;20451;-69
2022/07/03 04:58:12;;;;;;;6.82;6.15;;;15.60;99.90;;;;;;5028837;28;20231;-69
2022/07/03 05:00:40;;;;;;;6.75;6.07;;;15.90;99.90;;;;;;5029098;28;20033;-69
2022/07/03 05:03:06;;;;;;;7.78;6.65;;;;;;;;;;5028737;28;20017;-69
2022/07/03 05:05:32;;;;;;;8.10;5.75;;;16.30;99.90;;;;;;5029177;28;20101;-69
2022/07/03 05:07:57;;;;;;;5.57;4.97;;;16.40;99.90;;;;;;5028971;28;20108;-69
2022/07/03 05:10:23;;;;;;;5.90;5.05;;;16.90;99.90;;;;;;5021128;28;20076;-69
2022/07/03 05:12:48;;;;;;;7.30;5.43;;;16.80;99.90;;;;;;5014548;28;20096;-68
2022/07/03 05:15:14;;;;;;;8.15;4.78;;;17.10;99.90;;;;;;5028418;28;20079;-68
2022/07/03 05:17:39;;;;;;;5.45;5.05;;;17.20;99.90;;;;;;5010723;28;20037;-69
2022/07/03 05:20:24;;;;;;;5.47;4.88;;;17.20;99.90;;;;;;5024745;28;20068;-69
2022/07/03 05:22:53;;;;;;;9.10;5.35;;;17.30;99.90;;;;;;5027998;28;20188;-69
2022/07/03 05:25:19;;;;;;;6.95;4.90;;;17.30;99.90;;;;;;5027977;28;20037;-69
2022/07/03 05:27:45;;;;;;;6.03;4.50;;;17.40;99.90;;;;;;5017819;28;20719;-68
2022/07/03 05:30:11;;;;;;;6.13;4.57;;;17.30;99.90;;;;;;5026107;28;20093;-69
2022/07/03 05:32:37;;;;;;;7.38;4.32;;;17.50;99.90;;;;;;5028611;28;20483;-69
2022/07/03 05:35:03;;;;;;;5.03;4.53;;;17.60;99.90;;;;;;5025349;28;20084;-69
2022/07/03 05:37:29;;;;;;;5.50;4.90;;;17.70;99.90;;;;;;5014614;28;20074;-69
2022/07/03 05:39:55;;;;;;;7.70;4.88;;;17.50;99.90;;;;;;5012770;28;20045;-69
2022/07/03 05:42:20;;;;;;;5.53;3.65;;;17.50;99.90;;;;;;5012863;28;20025;-69
2022/07/03 05:44:46;;;;;;;4.97;4.50;;;17.60;99.90;;;;;;5003139;28;20524;-69
2022/07/03 05:47:12;;;;;;;6.63;4.10;;;17.50;99.90;;;;;;5032591;28;20025;-69
2022/07/03 05:49:38;;;;;;;4.75;4.28;;;17.40;99.90;;;;;;5012975;28;20042;-69
2022/07/03 05:52:04;;;;;;;5.63;3.92;;;17.40;99.90;;;;;;5023914;28;20029;-69
2022/07/03 05:54:29;;;;;;;6.22;4.45;;;17.50;99.90;;;;;;5032570;28;20040;-69
2022/07/03 05:56:55;;;;;;;5.28;4.00;;;17.50;99.90;;;;;;5032386;28;20031;-69
2022/07/03 05:59:20;;;;;;;5.13;3.95;;;17.70;99.90;;;;;;5014137;28;20430;-69
2022/07/03 06:01:46;;;;;;;5.13;3.20;;;17.80;99.90;;;;;;5032288;28;20080;-69
2022/07/03 06:04:11;;;;;;;6.40;3.35;;;17.80;99.90;;;;;;5032100;28;20030;-69
2022/07/03 06:06:37;;;;;;;7.28;3.67;;;18.00;99.90;;;;;;5031814;28;20124;-69
2022/07/03 06:09:03;;;;;;;4.22;3.15;;;18.10;99.90;;;;;;5031939;28;20079;-69
2022/07/03 06:11:28;;;;;;;4.25;3.03;;;18.10;99.90;;;;;;5032457;28;20354;-69
2022/07/03 06:13:54;;;;;;;3.30;2.53;;;18.10;99.90;;;;;;5032025;28;20101;-69
2022/07/03 06:16:19;;;;;;;5.32;3.42;;;18.20;99.90;;;;;;5031990;28;20029;-69
2022/07/03 06:18:45;;;;;;;5.68;2.45;;;18.30;99.90;;;;;;5031831;28;20099;-69
2022/07/03 06:21:11;;;;;;;6.20;2.75;;;18.40;99.90;;;;;;5031304;28;20044;-69
2022/07/03 06:23:36;;;;;;;8.13;2.55;;;19.10;99.90;;;;;;5014222;28;20083;-69
2022/07/03 06:26:02;;;;;;;4.35;2.38;;;18.50;99.90;;;;;;5031671;28;20382;-69
2022/07/03 06:28:27;;;;;;;3.35;2.63;;;18.50;99.90;;;;;;5032327;28;20390;-69
2022/07/03 06:30:53;;;;;;;5.85;2.83;;;18.70;99.90;;;;;;5032065;28;20510;-69
2022/07/03 06:33:18;;;;;;;4.00;1.95;;;18.60;99.90;;;;;;5031951;28;20447;-69
2022/07/03 06:35:44;;;;;;;7.57;2.30;;;18.70;99.90;;;;;;5031147;28;20041;-68
2022/07/03 06:38:10;;;;;;;4.03;3.13;;;18.70;99.90;;;;;;5031364;28;20069;-69
2022/07/03 06:40:35;;;;;;;5.63;2.17;;;18.70;99.90;;;;;;5031719;28;20070;-69
2022/07/03 06:43:01;;;;;;;4.88;2.33;;;18.70;99.90;;;;;;5031224;28;20419;-69
2022/07/03 06:45:26;;;;;;;3.72;1.98;;;18.80;99.90;;;;;;5031794;28;20021;-69
2022/07/03 06:47:52;;;;;;;3.65;1.83;;;18.80;99.90;;;;;;5018404;28;20305;-69
2022/07/03 06:50:17;;;;;;;3.95;1.42;;;18.90;99.90;;;;;;5014638;28;20029;-69
2022/07/03 06:52:43;;;;;;;3.85;1.52;;;18.90;99.90;;;;;;5031004;28;20037;-69
2022/07/03 06:55:09;;;;;;;3.63;1.48;;;;;;;;;;5030639;28;20474;-69
2022/07/03 06:57:35;;;;;;;4.70;1.27;;;18.70;99.90;;;;;;5031051;28;20026;-69
2022/07/03 07:00:00;;;;;;;2.60;1.30;;;19.80;99.90;;;;;;5030836;28;20362;-69
2022/07/03 07:02:26;;;;;;;6.10;1.58;;;17.40;99.90;;;;;;5017296;28;20014;-69
2022/07/03 07:04:51;;;;;;;4.18;1.40;;;19.00;99.90;;;;;;5030234;28;20364;-69
2022/07/03 07:07:17;;;;;;;5.28;1.63;;;19.30;99.90;;;;;;5030613;28;20539;-69
2022/07/03 07:09:43;;;;;;;3.47;1.20;;;20.10;99.90;;;;;;5012729;28;20209;-69
2022/07/03 07:12:09;;;;;;;3.40;0.93;;;19.10;99.90;;;;;;5016798;28;20022;-69
2022/07/03 07:14:37;;;;;;;4.03;1.65;;;19.40;99.90;;;;;;5030597;28;20433;-69
2022/07/03 07:17:02;;;;;;;5.70;1.25;;;19.40;99.90;;;;;;5030640;28;20695;-69
2022/07/03 07:19:28;;;;;;;4.90;1.48;;;19.20;99.90;;;;;;5029661;28;20068;-69
2022/07/03 07:21:53;;;;;;;2.90;1.25;;;19.50;99.90;;;;;;5030435;28;20038;-69
2022/07/03 07:24:19;;;;;;;3.03;0.85;;;19.50;99.90;;;;;;5030231;28;20072;-69
2022/07/03 07:26:45;;;;;;;2.78;1.20;;;19.60;99.90;;;;;;5030331;28;20025;-69
2022/07/03 07:29:10;;;;;;;4.50;1.05;;;19.50;99.90;;;;;;5030084;28;20387;-69
2022/07/03 07:31:38;;;;;;;3.78;1.13;;;19.60;99.90;;;;;;5030513;28;20490;-69
2022/07/03 07:34:04;;;;;;;4.32;1.67;;;22.00;99.90;;;;;;5029475;28;20030;-69
2022/07/03 07:36:31;;;;;;;4.10;1.08;;;19.80;99.90;;;;;;5012455;28;20466;-70
2022/07/03 07:38:56;;;;;;;1.83;0.80;;;19.90;99.90;;;;;;5030051;28;20033;-69
2022/07/03 07:41:22;;;;;;;3.83;0.80;;;19.80;99.90;;;;;;5029875;28;20022;-69
2022/07/03 07:43:47;;;;;;;7.28;1.45;;;19.80;99.80;;;;;;5026855;28;20030;-69
2022/07/03 07:46:13;;;;;;;3.38;0.70;;;19.80;99.70;;;;;;5010218;28;20054;-69
2022/07/03 07:48:38;;;;;;;4.35;1.00;;;20.00;99.70;;;;;;5024783;28;20029;-69
2022/07/03 07:51:04;;;;;;;2.90;0.77;;;20.30;99.70;;;;;;5029897;28;20025;-70
2022/07/03 07:53:30;;;;;;;3.88;0.80;;;20.30;99.50;;;;;;5030208;28;20032;-70
2022/07/03 07:55:55;;;;;;;3.75;0.60;;;20.50;99.30;;;;;;5017309;28;20101;-71
2022/07/03 07:58:22;;;;;;;5.47;0.90;;;20.50;99.00;;;;;;5013252;28;20063;-69
2022/07/03 08:06:17;;;;;;;1.60;0.85;;;20.70;98.10;;;;;;5029970;28;20112;-70
2022/07/03 08:08:43;;;;;;;4.68;0.82;;;21.40;98.60;;;;;;5029543;28;20462;-70
2022/07/03 08:11:09;;;;;;;2.47;0.80;;;20.80;98.20;;;;;;5023389;28;20056;-70
2022/07/03 08:13:34;;;;;;;2.22;0.85;;;20.90;97.90;;;;;;5020384;28;20033;-70
2022/07/03 08:16:00;;;;;;;3.67;1.20;;;20.90;97.70;;;;;;5024229;28;20036;-70
2022/07/03 08:18:25;;;;;;;2.30;0.60;;;20.90;97.60;;;;;;5009388;28;20050;-70
2022/07/03 08:20:51;;;;;;;3.97;0.95;;;21.00;97.70;;;;;;5026201;28;20037;-69
2022/07/03 08:23:16;;;;;;;2.00;0.60;;;20.90;97.60;;;;;;5029351;28;20033;-70
2022/07/03 08:25:42;;;;;;;2.28;0.50;;;21.20;97.60;;;;;;5029195;28;20033;-70
2022/07/03 08:28:07;;;;;;;1.15;0.43;;;21.20;97.10;;;;;;5029180;28;20471;-69
2022/07/03 08:30:33;;;;;;;3.95;0.70;;;21.40;96.70;;;;;;5029500;28;20037;-70
2022/07/03 08:32:59;;;;;;;3.00;0.80;;;21.30;96.40;;;;;;5028475;28;20018;-70
2022/07/03 08:35:25;;;;;;;4.25;0.80;;;21.40;96.10;;;;;;5029470;28;20036;-70
2022/07/03 08:37:52;;;;;;;3.20;0.80;;;21.30;95.90;;;;;;5028954;28;20025;-70
2022/07/03 08:40:19;;;;;;;2.40;0.70;;;21.40;95.80;;;;;;5029006;28;20503;-70
2022/07/03 08:42:50;;;;;;;1.92;0.73;;;21.40;95.80;;;;;;5028863;28;20450;-70
2022/07/03 08:45:17;;;;;;;2.55;1.10;;;21.10;95.90;;;;;;5027537;28;20116;-70
2022/07/03 08:47:44;;;;;;;3.97;0.70;;;21.40;95.80;;;;;;5027889;28;20108;-70
2022/07/03 08:50:14;;;;;;;3.28;0.80;;;21.70;95.70;;;;;;5028663;28;20071;-71
2022/07/03 08:52:41;;;;;;;2.33;0.73;;;21.90;95.80;;;;;;5028945;28;20022;-70
2022/07/03 08:55:08;;;;;;;4.15;0.90;;;21.40;95.50;;;;;;5010873;28;20017;-70
2022/07/03 08:57:36;;;;;;;2.65;1.23;;;21.60;95.40;;;;;;5019458;28;20038;-70
2022/07/03 09:00:06;;;;;;;1.90;0.60;;;21.60;95.50;;;;;;5010002;28;20069;-70
2022/07/03 09:02:33;;;;;;;1.98;0.60;;;21.60;95.20;;;;;;5029134;28;20021;-70
2022/07/03 09:05:01;;;;;;;2.10;1.08;;;22.80;95.20;;;;;;5028443;28;20030;-70
2022/07/03 09:07:29;;;;;;;2.28;1.23;;;22.50;95.10;;;;;;5028869;28;20523;-70
2022/07/03 09:09:55;;;;;;;2.38;0.65;;;21.70;94.60;;;;;;5028217;28;20025;-69
2022/07/03 09:12:21;;;;;;;1.95;0.60;;;21.80;94.50;;;;;;5028490;28;20482;-70
2022/07/03 09:14:47;;;;;;;1.23;0.68;;;21.80;94.40;;;;;;5028187;28;20032;-70
2022/07/03 09:17:12;;;;;;;3.00;0.70;;;21.80;94.10;;;;;;5007277;28;20034;-69
2022/07/03 09:19:46;;;;;;;1.55;0.90;;;22.00;94.10;;;;;;5017336;28;20053;-70
2022/07/03 09:22:30;;;;;;;2.85;0.90;;;22.10;93.60;;;;;;5008610;28;20550;-70
2022/07/03 09:25:04;;;;;;;2.92;0.93;;;22.20;93.60;;;;;;5025974;28;20041;-70
2022/07/03 09:27:30;;;;;;;1.92;0.60;;;22.30;94.10;;;;;;5028852;28;20413;-70
2022/07/03 09:29:59;;;;;;;3.92;0.98;;;22.20;94.00;;;;;;5010131;28;20025;-71
2022/07/03 09:32:30;;;;;;;2.65;0.47;;;22.20;93.00;;;;;;5028794;28;20112;-70
2022/07/03 09:35:20;;;;;;;1.95;0.88;;;22.20;93.90;;;;;;5028663;28;20025;-70
2022/07/03 09:37:49;;;;;;;3.15;0.52;;;22.20;93.60;;;;;;5017587;28;20038;-70
2022/07/03 09:40:16;;;;;;;2.92;0.85;;;22.10;94.10;;;;;;5025919;28;20064;-70
2022/07/03 09:42:57;;;;;;;6.75;1.05;;;22.20;93.70;;;;;;5010580;28;20025;-70
2022/07/03 09:45:23;;;;;;;2.65;0.75;;;22.20;94.00;;;;;;5027722;28;20049;-70
2022/07/03 09:47:49;;;;;;;2.65;0.77;;;22.40;93.90;;;;;;5028371;28;20093;-70
2022/07/03 09:50:15;;;;;;;4.40;0.80;;;22.40;93.80;;;;;;5028079;28;20121;-70
2022/07/03 09:52:46;;;;;;;5.32;1.00;;;22.40;93.90;;;;;;5010385;28;20068;-70
2022/07/03 09:55:13;;;;;;;3.78;1.00;;;22.30;94.30;;;;;;5028223;28;20045;-70
2022/07/03 09:57:38;;;;;;;3.03;0.57;;;22.30;94.00;;;;;;5028343;28;20021;-70
2022/07/03 10:00:14;;;;;;;2.70;0.90;;;22.30;94.10;;;;;;5027642;28;20040;-70
2022/07/03 10:02:55;;;;;;;2.72;0.82;;;22.40;93.70;;;;;;5028503;28;20094;-70
2022/07/03 10:05:23;;;;;;;4.05;0.80;;;22.50;93.70;;;;;;5016006;28;20060;-70
2022/07/03 10:07:56;;;;;;;2.58;0.70;;;22.50;94.20;;;;;;5028140;28;20026;-70
2022/07/03 10:10:23;;;;;;;2.50;0.60;;;22.50;93.40;;;;;;5015123;28;20484;-70
2022/07/03 10:12:51;;;;;;;3.63;0.57;;;22.60;94.10;;;;;;5027657;28;20159;-70
2022/07/03 10:15:17;;;;;;;1.83;0.50;;;23.20;94.10;;;;;;5027976;28;20020;-70
2022/07/03 10:17:45;;;;;;;1.77;1.30;;;22.70;93.50;;;;;;5027945;28;20462;-71
2022/07/03 10:20:14;;;;;;;3.30;0.93;;;23.80;93.80;;;;;;5027935;28;20034;-70
2022/07/03 10:22:42;;;;;;;3.33;0.88;;;22.70;93.80;;;;;;5020719;28;20025;-70
2022/07/03 10:25:09;;;;;;;3.40;0.90;;;22.70;93.60;;;;;;5029492;28;20040;-70
2022/07/03 10:27:36;;;;;;;4.35;0.80;;;22.70;93.50;;;;;;5020154;28;20100;-70
2022/07/03 10:30:02;;;;;;;1.15;0.60;;;22.70;93.40;;;;;;5017702;28;20030;-70
2022/07/03 10:32:28;;;;;;;1.30;0.60;;;22.70;93.10;;;;;;5031692;28;20025;-70
2022/07/03 10:34:54;;;;;;;3.00;0.52;;;22.80;92.90;;;;;;5031547;28;20060;-70
2022/07/03 10:37:21;;;;;;;2.40;0.70;;;23.00;92.60;;;;;;5030909;28;20043;-71
2022/07/03 10:46:11;;;;;;;3.47;1.00;;;23.30;92.20;;;;;;5011989;28;20176;-71
2022/07/03 10:48:58;;;;;;;3.38;0.77;;;23.40;91.70;;;;;;5011952;28;20025;-71
2022/07/03 10:51:25;;;;;;;2.20;0.95;;;23.50;91.60;;;;;;5011604;28;20022;-70
2022/07/03 10:54:10;;;;;;;2.15;0.68;;;23.50;92.10;;;;;;5031252;28;20469;-71
2022/07/03 10:56:58;;;;;;;0.93;0.57;;;23.60;92.00;;;;;;5024798;28;20540;-70
2022/07/03 10:59:36;;;;;;;3.17;0.55;;;23.40;91.60;;;;;;5025845;28;20167;-70
2022/07/03 11:02:18;;;;;;;2.95;0.82;;;23.20;92.50;;;;;;5031486;28;20071;-70
2022/07/03 11:04:59;;;;;;;2.00;0.60;;;24.10;92.90;;;;;;5011856;28;20030;-71
2022/07/03 11:07:28;;;;;;;2.42;0.52;;;22.90;92.80;;;;;;5024477;28;20026;-70
2022/07/03 11:10:12;;;;;;;3.58;0.60;;;23.00;91.50;;;;;;5030774;28;20486;-70
2022/07/03 11:12:56;;;;;;;1.75;0.50;;;23.00;91.60;;;;;;5030256;28;20032;-70
2022/07/03 11:15:37;;;;;;;2.25;0.57;;;23.00;92.60;;;;;;5030656;28;20017;-70
2022/07/03 11:18:11;;;;;;;2.83;0.60;;;23.10;92.40;;;;;;5030243;28;20470;-71
2022/07/03 11:20:42;;;;;;;1.98;0.60;;;23.10;91.30;;;;;;5030943;28;20040;-70
2022/07/03 11:23:25;;;;;;;3.35;0.90;;;23.20;92.00;;;;;;5030239;28;20048;-70
2022/07/03 11:25:55;;;;;;;7.05;0.82;;;23.20;90.90;;;;;;5030209;28;20494;-70
2022/07/03 11:28:33;;;;;;;2.45;0.80;;;23.30;90.50;;;;;;5030007;28;20385;-70
2022/07/03 11:31:07;;;;;;;1.42;0.50;;;24.60;91.60;;;;;;5030046;28;20124;-70
2022/07/03 11:33:48;;;;;;;1.58;0.70;;;23.50;91.30;;;;;;5008744;28;20492;-70
2022/07/03 11:36:16;;;;;;;3.53;1.10;;;23.60;90.40;;;;;;5009187;28;20395;-70
2022/07/03 11:38:47;;;;;;;4.38;1.80;;;23.50;91.20;;;;;;5028953;28;20033;-70
2022/07/03 11:41:15;;;;;;;3.05;1.40;;;23.40;90.20;;;;;;5029780;28;20026;-70
2022/07/03 11:43:48;;;;;;;3.95;1.35;;;23.40;90.90;;;;;;5030148;28;20029;-70
2022/07/03 11:46:21;;;;;;;;;;;23.50;90.90;;;;;;5030481;28;20433;-70
2022/07/03 11:48:46;;;;;;;5.75;0.82;;;23.40;90.20;;;;;;5030159;28;19905;-70
2022/07/03 11:51:12;;;;;;;1.67;0.60;;;23.10;90.30;;;;;;5030079;28;20439;-70
2022/07/03 11:53:39;;;;;;;2.45;0.80;;;23.30;90.20;;;;;;5029984;28;20108;-70
2022/07/03 11:56:07;;;;;;;2.00;0.50;;;23.30;90.40;;;;;;5029236;28;20457;-70
2022/07/03 11:58:49;;;;;;;1.38;0.85;;;23.30;88.60;;;;;;5030003;28;20057;-70
2022/07/03 12:01:27;;;;;;;2.10;0.50;;;23.50;90.40;;;;;;5029648;28;20087;-70
2022/07/03 12:04:02;;;;;;;1.65;0.70;;;23.60;90.20;;;;;;5017774;28;20498;-70
2022/07/03 12:06:53;;;;;;;3.60;0.95;;;23.70;87.60;;;;;;5015577;28;20076;-70
2022/07/03 12:09:23;;;;;;;3.13;0.60;;;24.70;90.10;;;;;;5028477;28;20048;-70
2022/07/03 12:12:02;;;;;;;2.58;0.70;;;25.00;89.70;;;;;;5029681;28;20022;-70
2022/07/03 12:14:34;;;;;;;1.83;0.75;;;24.30;88.50;;;;;;5029968;28;20021;-70
2022/07/03 12:17:00;;;;;;;0.80;0.50;;;24.10;87.80;;;;;;5029394;28;20032;-70
2022/07/03 12:19:25;;;;;;;1.77;0.60;;;24.20;86.50;;;;;;5029337;28;20057;-70
2022/07/03 12:21:51;;;;;;;1.05;0.55;;;25.20;86.50;;;;;;5029514;28;20021;-70
2022/07/03 12:24:17;;;;;;;1.95;0.60;;;24.20;85.80;;;;;;5028899;28;20356;-70
2022/07/03 12:26:42;;;;;;;2.88;0.68;;;24.10;85.90;;;;;;5029266;28;20020;-70
2022/07/03 12:29:10;;;;;;;1.77;0.70;;;24.20;85.40;;;;;;5029361;28;20025;-70
2022/07/03 12:31:39;;;;;;;1.60;0.50;;;24.00;85.40;;;;;;5029274;28;20134;-70
2022/07/03 12:34:05;;;;;;;1.65;0.50;;;23.90;85.90;;;;;;5029123;28;20101;-70
2022/07/03 12:36:31;;;;;;;1.60;0.75;;;23.90;85.90;;;;;;5029492;28;20112;-70
2022/07/03 12:38:57;;;;;;;2.15;1.17;;;23.90;86.10;;;;;;5028771;28;20037;-70
2022/07/03 12:41:24;;;;;;;3.80;0.93;;;23.80;86.40;;;;;;5029314;28;20388;-70
2022/07/03 12:43:51;;;;;;;1.85;0.63;;;23.90;86.30;;;;;;5028748;28;20026;-70
2022/07/03 12:46:23;;;;;;;2.13;0.98;;;24.10;86.80;;;;;;5028784;28;20495;-70
2022/07/03 12:48:54;;;;;;;1.92;0.40;;;25.20;87.70;;;;;;5028937;28;20025;-71
2022/07/03 12:51:41;;;;;;;1.10;0.45;;;24.20;84.70;;;;;;5011229;28;20026;-70
2022/07/03 12:54:34;;;;;;;0.95;0.40;;;24.20;84.50;;;;;;5028512;28;20100;-70
2022/07/03 13:00:07;;;;;;;0.93;0.52;;;24.30;85.70;;;;;;5028819;28;20043;-70
2022/07/03 13:02:34;;;;;;;3.88;0.65;;;24.70;85.70;;;;;;5029236;28;20048;-70
2022/07/03 13:05:00;;;;;;;1.00;0.40;;;25.10;84.00;;;;;;5028480;28;20148;-70
2022/07/03 13:07:30;;;;;;;1.23;0.40;;;24.40;83.50;;;;;;5028475;28;20028;-70
2022/07/03 13:09:59;;;;;;;3.00;0.55;;;25.90;84.70;;;;;;5025169;28;20017;-70
2022/07/03 13:12:24;;;;;;;2.05;0.85;;;24.60;82.50;;;;;;5009076;28;20026;-69
2022/07/03 13:15:01;;;;;;;0.95;0.45;;;25.70;82.70;;;;;;5020126;28;20028;-70
2022/07/03 13:17:54;;;;;;;2.72;0.70;;;24.60;82.60;;;;;;5028924;28;20025;-70